sensor_id;sensor_type;location;lat;lon;timestamp;P1;durP1;ratioP1;P2;durP2;ratioP2
51866;SDS011;52862;52.504;13.480;2024-03-25T00:00:36;9.00;;;5.80;;
51866;SDS011;52862;52.504;13.480;2024-03-25T00:03:03;7.50;;;4.37;;
51866;SDS011;52862;52.504;13.480;2024-03-25T00:05:30;6.57;;;4.53;;
51866;SDS011;52862;52.504;13.480;2024-03-25T00:07:58;9.03;;;4.57;;
51866;SDS011;52862;52.504;13.480;2024-03-25T00:10:25;5.70;;;3.87;;
51866;SDS011;52862;52.504;13.480;2024-03-25T00:12:52;6.57;;;3.93;;
51866;SDS011;52862;52.504;13.480;2024-03-25T00:15:22;9.30;;;4.43;;
51866;SDS011;52862;52.504;13.480;2024-03-25T00:17:49;8.80;;;4.77;;
51866;SDS011;52862;52.504;13.480;2024-03-25T00:20:16;6.83;;;4.10;;
51866;SDS011;52862;52.504;13.480;2024-03-25T00:22:43;6.43;;;4.03;;
51866;SDS011;52862;52.504;13.480;2024-03-25T00:25:10;8.27;;;4.77;;
51866;SDS011;52862;52.504;13.480;2024-03-25T00:27:37;6.83;;;4.03;;
51866;SDS011;52862;52.504;13.480;2024-03-25T00:30:04;7.20;;;4.50;;
51866;SDS011;52862;52.504;13.480;2024-03-25T00:32:32;7.80;;;4.77;;
51866;SDS011;52862;52.504;13.480;2024-03-25T00:34:58;10.40;;;4.77;;
51866;SDS011;52862;52.504;13.480;2024-03-25T00:37:24;9.17;;;4.83;;
51866;SDS011;52862;52.504;13.480;2024-03-25T00:39:51;9.37;;;4.60;;
51866;SDS011;52862;52.504;13.480;2024-03-25T00:42:17;9.70;;;5.73;;
51866;SDS011;52862;52.504;13.480;2024-03-25T00:44:44;15.00;;;5.60;;
51866;SDS011;52862;52.504;13.480;2024-03-25T00:47:10;8.50;;;4.87;;
51866;SDS011;52862;52.504;13.480;2024-03-25T00:49:37;14.07;;;6.07;;
51866;SDS011;52862;52.504;13.480;2024-03-25T00:52:04;11.23;;;5.20;;
51866;SDS011;52862;52.504;13.480;2024-03-25T00:54:31;10.50;;;5.70;;
51866;SDS011;52862;52.504;13.480;2024-03-25T00:56:57;15.07;;;6.10;;
51866;SDS011;52862;52.504;13.480;2024-03-25T00:59:23;12.03;;;5.57;;
51866;SDS011;52862;52.504;13.480;2024-03-25T01:01:50;11.87;;;6.10;;
51866;SDS011;52862;52.504;13.480;2024-03-25T01:04:16;10.63;;;5.73;;
51866;SDS011;52862;52.504;13.480;2024-03-25T01:06:44;20.87;;;6.00;;
51866;SDS011;52862;52.504;13.480;2024-03-25T01:09:10;12.60;;;5.50;;
51866;SDS011;52862;52.504;13.480;2024-03-25T01:11:38;10.00;;;5.73;;
51866;SDS011;52862;52.504;13.480;2024-03-25T01:14:04;12.40;;;5.87;;
51866;SDS011;52862;52.504;13.480;2024-03-25T01:16:31;10.70;;;5.63;;
51866;SDS011;52862;52.504;13.480;2024-03-25T01:18:57;10.37;;;5.90;;
51866;SDS011;52862;52.504;13.480;2024-03-25T01:21:24;12.30;;;6.00;;
51866;SDS011;52862;52.504;13.480;2024-03-25T01:23:51;15.13;;;6.67;;
51866;SDS011;52862;52.504;13.480;2024-03-25T01:26:20;13.87;;;6.50;;
51866;SDS011;52862;52.504;13.480;2024-03-25T01:28:46;11.70;;;6.13;;
51866;SDS011;52862;52.504;13.480;2024-03-25T01:31:12;13.70;;;5.80;;
51866;SDS011;52862;52.504;13.480;2024-03-25T01:33:39;9.33;;;5.57;;
51866;SDS011;52862;52.504;13.480;2024-03-25T01:36:06;15.17;;;7.27;;
51866;SDS011;52862;52.504;13.480;2024-03-25T01:38:32;11.03;;;6.53;;
51866;SDS011;52862;52.504;13.480;2024-03-25T01:41:07;14.03;;;7.50;;
51866;SDS011;52862;52.504;13.480;2024-03-25T01:43:34;13.23;;;7.10;;
51866;SDS011;52862;52.504;13.480;2024-03-25T01:46:00;13.27;;;7.47;;
51866;SDS011;52862;52.504;13.480;2024-03-25T01:48:27;13.73;;;8.00;;
51866;SDS011;52862;52.504;13.480;2024-03-25T01:50:54;16.37;;;7.43;;
51866;SDS011;52862;52.504;13.480;2024-03-25T01:53:20;16.40;;;8.10;;
51866;SDS011;52862;52.504;13.480;2024-03-25T01:55:48;15.83;;;7.97;;
51866;SDS011;52862;52.504;13.480;2024-03-25T01:58:17;13.07;;;8.40;;
51866;SDS011;52862;52.504;13.480;2024-03-25T02:00:43;18.93;;;8.70;;
51866;SDS011;52862;52.504;13.480;2024-03-25T02:03:10;12.47;;;7.20;;
51866;SDS011;52862;52.504;13.480;2024-03-25T02:05:36;17.63;;;8.70;;
51866;SDS011;52862;52.504;13.480;2024-03-25T02:08:04;12.90;;;8.07;;
51866;SDS011;52862;52.504;13.480;2024-03-25T02:10:32;13.43;;;6.33;;
51866;SDS011;52862;52.504;13.480;2024-03-25T02:12:58;12.83;;;6.27;;
51866;SDS011;52862;52.504;13.480;2024-03-25T02:15:26;8.60;;;4.77;;
51866;SDS011;52862;52.504;13.480;2024-03-25T02:17:53;6.80;;;2.80;;
51866;SDS011;52862;52.504;13.480;2024-03-25T02:20:20;5.17;;;2.70;;
51866;SDS011;52862;52.504;13.480;2024-03-25T02:22:46;5.30;;;2.80;;
51866;SDS011;52862;52.504;13.480;2024-03-25T02:25:12;3.03;;;2.10;;
51866;SDS011;52862;52.504;13.480;2024-03-25T02:27:42;3.87;;;1.43;;
51866;SDS011;52862;52.504;13.480;2024-03-25T02:30:09;7.20;;;2.47;;
51866;SDS011;52862;52.504;13.480;2024-03-25T02:32:38;3.23;;;2.13;;
51866;SDS011;52862;52.504;13.480;2024-03-25T02:35:05;5.43;;;2.30;;
51866;SDS011;52862;52.504;13.480;2024-03-25T02:37:35;4.67;;;2.13;;
51866;SDS011;52862;52.504;13.480;2024-03-25T02:40:04;4.10;;;2.00;;
51866;SDS011;52862;52.504;13.480;2024-03-25T02:42:32;6.53;;;2.10;;
51866;SDS011;52862;52.504;13.480;2024-03-25T02:45:00;2.93;;;2.20;;
51866;SDS011;52862;52.504;13.480;2024-03-25T02:47:26;4.70;;;3.10;;
51866;SDS011;52862;52.504;13.480;2024-03-25T02:49:53;8.53;;;3.73;;
51866;SDS011;52862;52.504;13.480;2024-03-25T02:52:19;11.40;;;3.73;;
51866;SDS011;52862;52.504;13.480;2024-03-25T02:54:46;9.33;;;3.83;;
51866;SDS011;52862;52.504;13.480;2024-03-25T02:57:12;5.53;;;3.07;;
51866;SDS011;52862;52.504;13.480;2024-03-25T02:59:39;11.87;;;4.00;;
51866;SDS011;52862;52.504;13.480;2024-03-25T03:02:06;7.03;;;2.17;;
51866;SDS011;52862;52.504;13.480;2024-03-25T03:04:33;7.13;;;2.87;;
51866;SDS011;52862;52.504;13.480;2024-03-25T03:06:59;7.97;;;2.50;;
51866;SDS011;52862;52.504;13.480;2024-03-25T03:09:26;5.03;;;2.30;;
51866;SDS011;52862;52.504;13.480;2024-03-25T03:11:52;4.57;;;2.60;;
51866;SDS011;52862;52.504;13.480;2024-03-25T03:14:18;3.80;;;2.27;;
51866;SDS011;52862;52.504;13.480;2024-03-25T03:16:45;5.60;;;2.40;;
51866;SDS011;52862;52.504;13.480;2024-03-25T03:19:12;8.00;;;3.20;;
51866;SDS011;52862;52.504;13.480;2024-03-25T03:21:38;6.93;;;3.47;;
51866;SDS011;52862;52.504;13.480;2024-03-25T03:24:05;9.87;;;3.40;;
51866;SDS011;52862;52.504;13.480;2024-03-25T03:26:31;11.87;;;4.33;;
51866;SDS011;52862;52.504;13.480;2024-03-25T03:28:58;7.97;;;3.90;;
51866;SDS011;52862;52.504;13.480;2024-03-25T03:31:25;7.87;;;3.90;;
51866;SDS011;52862;52.504;13.480;2024-03-25T03:33:52;13.17;;;4.23;;
51866;SDS011;52862;52.504;13.480;2024-03-25T03:36:21;7.17;;;4.23;;
51866;SDS011;52862;52.504;13.480;2024-03-25T03:38:50;12.30;;;5.70;;
51866;SDS011;52862;52.504;13.480;2024-03-25T03:41:16;13.53;;;5.03;;
51866;SDS011;52862;52.504;13.480;2024-03-25T03:43:43;12.30;;;5.57;;
51866;SDS011;52862;52.504;13.480;2024-03-25T03:46:10;24.03;;;5.23;;
51866;SDS011;52862;52.504;13.480;2024-03-25T03:48:36;12.17;;;4.83;;
51866;SDS011;52862;52.504;13.480;2024-03-25T03:51:03;17.70;;;5.10;;
51866;SDS011;52862;52.504;13.480;2024-03-25T03:53:31;9.17;;;4.63;;
51866;SDS011;52862;52.504;13.480;2024-03-25T03:55:57;8.80;;;4.87;;
51866;SDS011;52862;52.504;13.480;2024-03-25T03:58:25;15.70;;;5.03;;
51866;SDS011;52862;52.504;13.480;2024-03-25T04:00:51;9.93;;;4.47;;
51866;SDS011;52862;52.504;13.480;2024-03-25T04:03:18;13.83;;;4.70;;
51866;SDS011;52862;52.504;13.480;2024-03-25T04:05:45;10.40;;;4.97;;
51866;SDS011;52862;52.504;13.480;2024-03-25T04:08:12;13.33;;;4.37;;
51866;SDS011;52862;52.504;13.480;2024-03-25T04:10:39;9.50;;;4.47;;
51866;SDS011;52862;52.504;13.480;2024-03-25T04:13:06;10.50;;;4.43;;
51866;SDS011;52862;52.504;13.480;2024-03-25T04:15:33;6.90;;;3.40;;
51866;SDS011;52862;52.504;13.480;2024-03-25T04:18:00;6.10;;;3.87;;
51866;SDS011;52862;52.504;13.480;2024-03-25T04:20:26;6.53;;;3.37;;
51866;SDS011;52862;52.504;13.480;2024-03-25T04:22:54;5.23;;;3.70;;
51866;SDS011;52862;52.504;13.480;2024-03-25T04:25:20;7.00;;;3.80;;
51866;SDS011;52862;52.504;13.480;2024-03-25T04:27:48;6.77;;;3.30;;
51866;SDS011;52862;52.504;13.480;2024-03-25T04:30:14;9.57;;;3.57;;
51866;SDS011;52862;52.504;13.480;2024-03-25T04:32:42;6.17;;;2.90;;
51866;SDS011;52862;52.504;13.480;2024-03-25T04:35:08;7.37;;;3.80;;
51866;SDS011;52862;52.504;13.480;2024-03-25T04:37:35;7.23;;;3.33;;
51866;SDS011;52862;52.504;13.480;2024-03-25T04:40:02;8.67;;;4.27;;
51866;SDS011;52862;52.504;13.480;2024-03-25T04:42:29;5.13;;;3.13;;
51866;SDS011;52862;52.504;13.480;2024-03-25T04:44:56;6.77;;;3.53;;
51866;SDS011;52862;52.504;13.480;2024-03-25T04:47:23;9.57;;;3.60;;
51866;SDS011;52862;52.504;13.480;2024-03-25T04:49:49;12.40;;;3.67;;
51866;SDS011;52862;52.504;13.480;2024-03-25T04:52:17;8.67;;;4.07;;
51866;SDS011;52862;52.504;13.480;2024-03-25T04:54:44;8.87;;;4.20;;
51866;SDS011;52862;52.504;13.480;2024-03-25T04:57:10;8.83;;;4.10;;
51866;SDS011;52862;52.504;13.480;2024-03-25T04:59:37;14.30;;;4.63;;
51866;SDS011;52862;52.504;13.480;2024-03-25T05:02:04;8.37;;;3.97;;
51866;SDS011;52862;52.504;13.480;2024-03-25T05:04:30;8.63;;;4.33;;
51866;SDS011;52862;52.504;13.480;2024-03-25T05:06:57;10.63;;;4.43;;
51866;SDS011;52862;52.504;13.480;2024-03-25T05:09:24;9.77;;;5.17;;
51866;SDS011;52862;52.504;13.480;2024-03-25T05:11:50;12.83;;;5.77;;
51866;SDS011;52862;52.504;13.480;2024-03-25T05:14:16;19.07;;;6.17;;
51866;SDS011;52862;52.504;13.480;2024-03-25T05:16:43;14.50;;;6.30;;
51866;SDS011;52862;52.504;13.480;2024-03-25T05:19:10;16.43;;;6.87;;
51866;SDS011;52862;52.504;13.480;2024-03-25T05:21:36;14.90;;;6.30;;
51866;SDS011;52862;52.504;13.480;2024-03-25T05:24:03;14.50;;;5.60;;
51866;SDS011;52862;52.504;13.480;2024-03-25T05:26:30;11.90;;;5.40;;
51866;SDS011;52862;52.504;13.480;2024-03-25T05:28:56;16.93;;;4.83;;
51866;SDS011;52862;52.504;13.480;2024-03-25T05:31:23;13.10;;;4.33;;
51866;SDS011;52862;52.504;13.480;2024-03-25T05:33:49;12.13;;;4.60;;
51866;SDS011;52862;52.504;13.480;2024-03-25T05:36:16;11.57;;;5.27;;
51866;SDS011;52862;52.504;13.480;2024-03-25T05:38:43;8.30;;;3.20;;
51866;SDS011;52862;52.504;13.480;2024-03-25T05:41:09;17.13;;;4.10;;
51866;SDS011;52862;52.504;13.480;2024-03-25T05:43:36;7.60;;;3.97;;
51866;SDS011;52862;52.504;13.480;2024-03-25T05:46:03;19.00;;;4.27;;
51866;SDS011;52862;52.504;13.480;2024-03-25T05:48:29;15.07;;;4.10;;
51866;SDS011;52862;52.504;13.480;2024-03-25T05:50:57;16.57;;;3.90;;
51866;SDS011;52862;52.504;13.480;2024-03-25T05:53:28;15.07;;;4.57;;
51866;SDS011;52862;52.504;13.480;2024-03-25T05:55:55;18.23;;;4.53;;
51866;SDS011;52862;52.504;13.480;2024-03-25T05:58:22;12.20;;;4.70;;
51866;SDS011;52862;52.504;13.480;2024-03-25T06:00:48;15.27;;;5.03;;
51866;SDS011;52862;52.504;13.480;2024-03-25T06:03:15;18.77;;;6.07;;
51866;SDS011;52862;52.504;13.480;2024-03-25T06:05:42;17.27;;;6.20;;
51866;SDS011;52862;52.504;13.480;2024-03-25T06:08:09;23.80;;;6.80;;
51866;SDS011;52862;52.504;13.480;2024-03-25T06:10:44;18.63;;;6.00;;
51866;SDS011;52862;52.504;13.480;2024-03-25T06:13:11;15.93;;;6.23;;
51866;SDS011;52862;52.504;13.480;2024-03-25T06:15:37;21.70;;;6.83;;
51866;SDS011;52862;52.504;13.480;2024-03-25T06:18:04;18.53;;;7.30;;
51866;SDS011;52862;52.504;13.480;2024-03-25T06:20:30;23.47;;;7.40;;
51866;SDS011;52862;52.504;13.480;2024-03-25T06:22:57;11.93;;;5.33;;
51866;SDS011;52862;52.504;13.480;2024-03-25T06:25:23;19.17;;;5.83;;
51866;SDS011;52862;52.504;13.480;2024-03-25T06:27:50;10.50;;;4.87;;
51866;SDS011;52862;52.504;13.480;2024-03-25T06:30:16;14.33;;;5.30;;
51866;SDS011;52862;52.504;13.480;2024-03-25T06:33:01;19.37;;;6.97;;
51866;SDS011;52862;52.504;13.480;2024-03-25T06:35:46;11.90;;;3.97;;
51866;SDS011;52862;52.504;13.480;2024-03-25T06:38:13;18.50;;;5.87;;
51866;SDS011;52862;52.504;13.480;2024-03-25T06:40:39;14.50;;;5.30;;
51866;SDS011;52862;52.504;13.480;2024-03-25T06:43:06;14.93;;;6.87;;
51866;SDS011;52862;52.504;13.480;2024-03-25T06:45:33;11.87;;;5.20;;
51866;SDS011;52862;52.504;13.480;2024-03-25T06:48:00;22.40;;;6.87;;
51866;SDS011;52862;52.504;13.480;2024-03-25T06:50:26;20.47;;;5.83;;
51866;SDS011;52862;52.504;13.480;2024-03-25T06:52:53;14.90;;;6.43;;
51866;SDS011;52862;52.504;13.480;2024-03-25T06:55:19;14.17;;;6.20;;
51866;SDS011;52862;52.504;13.480;2024-03-25T06:57:48;12.83;;;6.23;;
51866;SDS011;52862;52.504;13.480;2024-03-25T07:00:15;16.63;;;6.43;;
51866;SDS011;52862;52.504;13.480;2024-03-25T07:02:42;25.97;;;7.17;;
51866;SDS011;52862;52.504;13.480;2024-03-25T07:05:09;16.20;;;7.63;;
51866;SDS011;52862;52.504;13.480;2024-03-25T07:07:35;22.53;;;6.73;;
51866;SDS011;52862;52.504;13.480;2024-03-25T07:10:02;19.23;;;6.50;;
51866;SDS011;52862;52.504;13.480;2024-03-25T07:12:28;18.50;;;5.90;;
51866;SDS011;52862;52.504;13.480;2024-03-25T07:14:55;21.97;;;6.33;;
51866;SDS011;52862;52.504;13.480;2024-03-25T07:17:22;17.53;;;6.90;;
51866;SDS011;52862;52.504;13.480;2024-03-25T07:19:48;15.63;;;6.13;;
51866;SDS011;52862;52.504;13.480;2024-03-25T07:22:15;20.73;;;5.93;;
51866;SDS011;52862;52.504;13.480;2024-03-25T07:24:41;14.23;;;5.43;;
51866;SDS011;52862;52.504;13.480;2024-03-25T07:27:08;14.60;;;4.97;;
51866;SDS011;52862;52.504;13.480;2024-03-25T07:29:35;12.73;;;5.60;;
51866;SDS011;52862;52.504;13.480;2024-03-25T07:32:01;15.27;;;5.13;;
51866;SDS011;52862;52.504;13.480;2024-03-25T07:34:29;17.13;;;4.37;;
51866;SDS011;52862;52.504;13.480;2024-03-25T07:36:55;11.57;;;4.40;;
51866;SDS011;52862;52.504;13.480;2024-03-25T07:39:21;13.07;;;5.53;;
51866;SDS011;52862;52.504;13.480;2024-03-25T07:41:49;7.40;;;4.63;;
51866;SDS011;52862;52.504;13.480;2024-03-25T07:44:16;14.87;;;5.07;;
51866;SDS011;52862;52.504;13.480;2024-03-25T07:46:42;14.00;;;4.47;;
51866;SDS011;52862;52.504;13.480;2024-03-25T07:49:08;18.63;;;4.17;;
51866;SDS011;52862;52.504;13.480;2024-03-25T07:51:36;8.97;;;4.10;;
51866;SDS011;52862;52.504;13.480;2024-03-25T07:54:05;6.37;;;2.67;;
51866;SDS011;52862;52.504;13.480;2024-03-25T07:56:31;10.23;;;3.30;;
51866;SDS011;52862;52.504;13.480;2024-03-25T07:58:58;9.47;;;3.00;;
51866;SDS011;52862;52.504;13.480;2024-03-25T08:01:25;10.73;;;4.10;;
51866;SDS011;52862;52.504;13.480;2024-03-25T08:03:51;7.83;;;3.13;;
51866;SDS011;52862;52.504;13.480;2024-03-25T08:06:18;16.50;;;3.93;;
51866;SDS011;52862;52.504;13.480;2024-03-25T08:08:47;14.57;;;4.00;;
51866;SDS011;52862;52.504;13.480;2024-03-25T08:11:13;11.40;;;3.67;;
51866;SDS011;52862;52.504;13.480;2024-03-25T08:13:40;14.57;;;3.97;;
51866;SDS011;52862;52.504;13.480;2024-03-25T08:16:06;9.87;;;3.43;;
51866;SDS011;52862;52.504;13.480;2024-03-25T08:18:33;10.83;;;3.60;;
51866;SDS011;52862;52.504;13.480;2024-03-25T08:21:00;6.93;;;3.50;;
51866;SDS011;52862;52.504;13.480;2024-03-25T08:23:27;8.33;;;3.90;;
51866;SDS011;52862;52.504;13.480;2024-03-25T08:25:54;12.70;;;4.40;;
51866;SDS011;52862;52.504;13.480;2024-03-25T08:28:21;14.53;;;5.00;;
51866;SDS011;52862;52.504;13.480;2024-03-25T08:30:47;9.17;;;4.83;;
51866;SDS011;52862;52.504;13.480;2024-03-25T08:33:14;12.93;;;4.80;;
51866;SDS011;52862;52.504;13.480;2024-03-25T08:35:40;11.50;;;4.60;;
51866;SDS011;52862;52.504;13.480;2024-03-25T08:38:07;11.97;;;4.90;;
51866;SDS011;52862;52.504;13.480;2024-03-25T08:40:33;10.87;;;4.90;;
51866;SDS011;52862;52.504;13.480;2024-03-25T08:43:01;22.27;;;4.77;;
51866;SDS011;52862;52.504;13.480;2024-03-25T08:45:27;13.90;;;4.87;;
51866;SDS011;52862;52.504;13.480;2024-03-25T08:47:53;17.77;;;4.70;;
51866;SDS011;52862;52.504;13.480;2024-03-25T08:50:20;13.43;;;4.30;;
51866;SDS011;52862;52.504;13.480;2024-03-25T08:52:46;9.63;;;5.10;;
51866;SDS011;52862;52.504;13.480;2024-03-25T08:55:13;12.17;;;4.60;;
51866;SDS011;52862;52.504;13.480;2024-03-25T08:57:40;11.57;;;4.60;;
51866;SDS011;52862;52.504;13.480;2024-03-25T09:00:07;12.10;;;5.07;;
51866;SDS011;52862;52.504;13.480;2024-03-25T09:02:35;13.33;;;4.87;;
51866;SDS011;52862;52.504;13.480;2024-03-25T09:05:03;13.70;;;5.60;;
51866;SDS011;52862;52.504;13.480;2024-03-25T09:07:30;13.90;;;5.17;;
51866;SDS011;52862;52.504;13.480;2024-03-25T09:09:57;11.70;;;5.40;;
51866;SDS011;52862;52.504;13.480;2024-03-25T09:12:42;10.23;;;4.27;;
51866;SDS011;52862;52.504;13.480;2024-03-25T09:15:10;12.27;;;4.23;;
51866;SDS011;52862;52.504;13.480;2024-03-25T09:17:36;6.77;;;4.30;;
51866;SDS011;52862;52.504;13.480;2024-03-25T09:20:03;13.07;;;4.70;;
51866;SDS011;52862;52.504;13.480;2024-03-25T09:22:41;14.33;;;4.93;;
51866;SDS011;52862;52.504;13.480;2024-03-25T09:25:08;13.67;;;5.33;;
51866;SDS011;52862;52.504;13.480;2024-03-25T09:27:35;10.23;;;4.30;;
51866;SDS011;52862;52.504;13.480;2024-03-25T09:30:02;12.47;;;4.70;;
51866;SDS011;52862;52.504;13.480;2024-03-25T09:32:30;10.67;;;4.70;;
51866;SDS011;52862;52.504;13.480;2024-03-25T09:34:57;19.83;;;5.53;;
51866;SDS011;52862;52.504;13.480;2024-03-25T09:37:25;21.37;;;5.47;;
51866;SDS011;52862;52.504;13.480;2024-03-25T09:39:52;8.77;;;4.20;;
51866;SDS011;52862;52.504;13.480;2024-03-25T09:42:21;11.27;;;4.70;;
51866;SDS011;52862;52.504;13.480;2024-03-25T09:44:52;12.13;;;4.10;;
51866;SDS011;52862;52.504;13.480;2024-03-25T09:47:21;11.20;;;4.50;;
51866;SDS011;52862;52.504;13.480;2024-03-25T09:49:48;7.40;;;3.37;;
51866;SDS011;52862;52.504;13.480;2024-03-25T09:52:15;23.83;;;4.83;;
51866;SDS011;52862;52.504;13.480;2024-03-25T09:54:42;11.17;;;4.33;;
51866;SDS011;52862;52.504;13.480;2024-03-25T09:57:08;7.60;;;3.63;;
51866;SDS011;52862;52.504;13.480;2024-03-25T09:59:35;9.93;;;3.90;;
51866;SDS011;52862;52.504;13.480;2024-03-25T10:02:03;11.33;;;4.67;;
51866;SDS011;52862;52.504;13.480;2024-03-25T10:04:30;12.93;;;4.40;;
51866;SDS011;52862;52.504;13.480;2024-03-25T10:06:59;9.90;;;3.93;;
51866;SDS011;52862;52.504;13.480;2024-03-25T10:09:25;14.43;;;4.13;;
51866;SDS011;52862;52.504;13.480;2024-03-25T10:11:52;12.20;;;4.83;;
51866;SDS011;52862;52.504;13.480;2024-03-25T10:14:18;19.93;;;3.73;;
51866;SDS011;52862;52.504;13.480;2024-03-25T10:16:45;11.97;;;4.20;;
51866;SDS011;52862;52.504;13.480;2024-03-25T10:19:14;15.30;;;3.97;;
51866;SDS011;52862;52.504;13.480;2024-03-25T10:21:41;12.93;;;3.87;;
51866;SDS011;52862;52.504;13.480;2024-03-25T10:24:08;16.73;;;4.73;;
51866;SDS011;52862;52.504;13.480;2024-03-25T10:26:34;14.70;;;3.87;;
51866;SDS011;52862;52.504;13.480;2024-03-25T10:29:03;15.03;;;3.63;;
51866;SDS011;52862;52.504;13.480;2024-03-25T10:31:32;12.10;;;4.13;;
51866;SDS011;52862;52.504;13.480;2024-03-25T10:33:59;8.23;;;3.27;;
51866;SDS011;52862;52.504;13.480;2024-03-25T10:36:26;16.57;;;3.73;;
51866;SDS011;52862;52.504;13.480;2024-03-25T10:38:54;9.47;;;3.10;;
51866;SDS011;52862;52.504;13.480;2024-03-25T10:41:22;6.87;;;3.03;;
51866;SDS011;52862;52.504;13.480;2024-03-25T10:43:51;9.87;;;2.83;;
51866;SDS011;52862;52.504;13.480;2024-03-25T10:46:20;10.87;;;2.77;;
51866;SDS011;52862;52.504;13.480;2024-03-25T10:48:52;9.53;;;3.13;;
51866;SDS011;52862;52.504;13.480;2024-03-25T10:51:20;5.83;;;2.63;;
51866;SDS011;52862;52.504;13.480;2024-03-25T10:53:49;9.30;;;2.57;;
51866;SDS011;52862;52.504;13.480;2024-03-25T10:56:19;9.73;;;2.53;;
51866;SDS011;52862;52.504;13.480;2024-03-25T10:58:47;7.33;;;2.60;;
51866;SDS011;52862;52.504;13.480;2024-03-25T11:01:15;15.40;;;2.77;;
51866;SDS011;52862;52.504;13.480;2024-03-25T11:03:43;9.83;;;2.87;;
51866;SDS011;52862;52.504;13.480;2024-03-25T11:06:10;9.53;;;2.80;;
51866;SDS011;52862;52.504;13.480;2024-03-25T11:08:37;16.77;;;2.87;;
51866;SDS011;52862;52.504;13.480;2024-03-25T11:11:04;8.80;;;3.00;;
51866;SDS011;52862;52.504;13.480;2024-03-25T11:13:31;6.00;;;1.97;;
51866;SDS011;52862;52.504;13.480;2024-03-25T11:15:59;9.37;;;2.50;;
51866;SDS011;52862;52.504;13.480;2024-03-25T11:18:26;6.23;;;2.10;;
51866;SDS011;52862;52.504;13.480;2024-03-25T11:21:01;6.37;;;2.30;;
51866;SDS011;52862;52.504;13.480;2024-03-25T11:23:35;5.37;;;2.50;;
51866;SDS011;52862;52.504;13.480;2024-03-25T11:26:16;9.10;;;2.03;;
51866;SDS011;52862;52.504;13.480;2024-03-25T11:28:44;13.10;;;2.23;;
51866;SDS011;52862;52.504;13.480;2024-03-25T11:31:11;6.27;;;2.30;;
51866;SDS011;52862;52.504;13.480;2024-03-25T11:33:38;12.00;;;2.43;;
51866;SDS011;52862;52.504;13.480;2024-03-25T11:36:05;4.00;;;1.90;;
51866;SDS011;52862;52.504;13.480;2024-03-25T11:38:32;8.67;;;2.07;;
51866;SDS011;52862;52.504;13.480;2024-03-25T11:40:59;5.87;;;2.13;;
51866;SDS011;52862;52.504;13.480;2024-03-25T11:43:26;8.50;;;2.13;;
51866;SDS011;52862;52.504;13.480;2024-03-25T11:45:53;4.07;;;2.00;;
51866;SDS011;52862;52.504;13.480;2024-03-25T11:48:20;5.33;;;2.53;;
51866;SDS011;52862;52.504;13.480;2024-03-25T11:50:47;6.43;;;2.47;;
51866;SDS011;52862;52.504;13.480;2024-03-25T11:53:14;5.20;;;2.03;;
51866;SDS011;52862;52.504;13.480;2024-03-25T11:55:40;10.73;;;2.50;;
51866;SDS011;52862;52.504;13.480;2024-03-25T11:58:07;3.07;;;2.00;;
51866;SDS011;52862;52.504;13.480;2024-03-25T12:00:34;7.93;;;2.20;;
51866;SDS011;52862;52.504;13.480;2024-03-25T12:03:00;6.53;;;2.07;;
51866;SDS011;52862;52.504;13.480;2024-03-25T12:05:29;7.50;;;2.57;;
51866;SDS011;52862;52.504;13.480;2024-03-25T12:07:55;3.33;;;1.80;;
51866;SDS011;52862;52.504;13.480;2024-03-25T12:10:22;8.23;;;1.67;;
51866;SDS011;52862;52.504;13.480;2024-03-25T12:13:07;6.80;;;2.20;;
51866;SDS011;52862;52.504;13.480;2024-03-25T12:15:34;14.67;;;2.47;;
51866;SDS011;52862;52.504;13.480;2024-03-25T12:18:01;4.83;;;1.67;;
51866;SDS011;52862;52.504;13.480;2024-03-25T12:20:27;5.47;;;2.27;;
51866;SDS011;52862;52.504;13.480;2024-03-25T12:22:54;4.87;;;2.20;;
51866;SDS011;52862;52.504;13.480;2024-03-25T12:25:21;7.33;;;2.10;;
51866;SDS011;52862;52.504;13.480;2024-03-25T12:27:47;13.80;;;2.70;;
51866;SDS011;52862;52.504;13.480;2024-03-25T12:30:14;5.90;;;2.17;;
51866;SDS011;52862;52.504;13.480;2024-03-25T12:32:41;10.77;;;2.73;;
51866;SDS011;52862;52.504;13.480;2024-03-25T12:35:08;4.07;;;2.03;;
51866;SDS011;52862;52.504;13.480;2024-03-25T12:37:36;8.17;;;2.27;;
51866;SDS011;52862;52.504;13.480;2024-03-25T12:40:04;15.17;;;2.77;;
51866;SDS011;52862;52.504;13.480;2024-03-25T12:42:33;6.97;;;2.00;;
51866;SDS011;52862;52.504;13.480;2024-03-25T12:45:00;7.27;;;1.83;;
51866;SDS011;52862;52.504;13.480;2024-03-25T12:47:28;6.07;;;2.20;;
51866;SDS011;52862;52.504;13.480;2024-03-25T12:49:56;7.40;;;2.10;;
51866;SDS011;52862;52.504;13.480;2024-03-25T12:52:22;12.97;;;2.23;;
51866;SDS011;52862;52.504;13.480;2024-03-25T12:54:49;10.33;;;2.07;;
51866;SDS011;52862;52.504;13.480;2024-03-25T12:57:16;10.40;;;2.23;;
51866;SDS011;52862;52.504;13.480;2024-03-25T12:59:45;17.20;;;2.33;;
51866;SDS011;52862;52.504;13.480;2024-03-25T13:02:12;7.90;;;1.97;;
51866;SDS011;52862;52.504;13.480;2024-03-25T13:04:38;5.00;;;1.93;;
51866;SDS011;52862;52.504;13.480;2024-03-25T13:07:08;11.17;;;2.00;;
51866;SDS011;52862;52.504;13.480;2024-03-25T13:09:34;4.40;;;1.60;;
51866;SDS011;52862;52.504;13.480;2024-03-25T13:12:01;6.00;;;1.70;;
51866;SDS011;52862;52.504;13.480;2024-03-25T13:14:28;4.60;;;1.70;;
51866;SDS011;52862;52.504;13.480;2024-03-25T13:16:56;7.00;;;1.73;;
51866;SDS011;52862;52.504;13.480;2024-03-25T13:19:23;4.27;;;2.23;;
51866;SDS011;52862;52.504;13.480;2024-03-25T13:21:49;29.03;;;2.23;;
51866;SDS011;52862;52.504;13.480;2024-03-25T13:24:16;4.30;;;1.77;;
51866;SDS011;52862;52.504;13.480;2024-03-25T13:26:42;3.10;;;1.70;;
51866;SDS011;52862;52.504;13.480;2024-03-25T13:29:09;7.93;;;2.70;;
51866;SDS011;52862;52.504;13.480;2024-03-25T13:31:37;6.23;;;1.93;;
51866;SDS011;52862;52.504;13.480;2024-03-25T13:34:03;6.43;;;2.07;;
51866;SDS011;52862;52.504;13.480;2024-03-25T13:36:31;9.33;;;2.10;;
51866;SDS011;52862;52.504;13.480;2024-03-25T13:38:57;3.73;;;1.80;;
51866;SDS011;52862;52.504;13.480;2024-03-25T13:41:24;3.93;;;1.90;;
51866;SDS011;52862;52.504;13.480;2024-03-25T13:43:50;4.30;;;1.80;;
51866;SDS011;52862;52.504;13.480;2024-03-25T13:46:17;8.77;;;2.00;;
51866;SDS011;52862;52.504;13.480;2024-03-25T13:48:43;7.97;;;1.97;;
51866;SDS011;52862;52.504;13.480;2024-03-25T13:51:11;6.23;;;1.60;;
51866;SDS011;52862;52.504;13.480;2024-03-25T13:53:37;2.37;;;1.30;;
51866;SDS011;52862;52.504;13.480;2024-03-25T13:56:03;9.33;;;1.50;;
51866;SDS011;52862;52.504;13.480;2024-03-25T13:58:31;5.27;;;1.57;;
51866;SDS011;52862;52.504;13.480;2024-03-25T14:00:58;5.57;;;1.40;;
51866;SDS011;52862;52.504;13.480;2024-03-25T14:03:26;8.37;;;2.13;;
51866;SDS011;52862;52.504;13.480;2024-03-25T14:05:54;5.60;;;1.87;;
51866;SDS011;52862;52.504;13.480;2024-03-25T14:08:21;3.73;;;1.40;;
51866;SDS011;52862;52.504;13.480;2024-03-25T14:10:56;10.37;;;2.17;;
51866;SDS011;52862;52.504;13.480;2024-03-25T14:13:24;2.47;;;1.53;;
51866;SDS011;52862;52.504;13.480;2024-03-25T14:15:51;11.07;;;1.77;;
51866;SDS011;52862;52.504;13.480;2024-03-25T14:18:17;46.47;;;19.73;;
51866;SDS011;52862;52.504;13.480;2024-03-25T14:20:44;2.47;;;1.43;;
51866;SDS011;52862;52.504;13.480;2024-03-25T14:23:12;3.23;;;1.50;;
51866;SDS011;52862;52.504;13.480;2024-03-25T14:25:39;3.77;;;1.60;;
51866;SDS011;52862;52.504;13.480;2024-03-25T14:28:06;3.67;;;1.20;;